Landis, Arkansas
Current Conditions -  °F | °C
As of 10:15 AM on Thursday 23 Oct 2014 (Local Time) from KFLP Reporting Station
Clear Clear  
Wind Chill:   Ceiling: Unl
Heat Index:   Visibility: 1mi
Dew Point:   Wind: 0mph
Humidity: 82%   Direction: NA
Pressure: 30.22"   Gusts: NA
Location:  35.9407°N, 92.655°W
Report Text: KFLP 231515Z AUTO 00000KT 1SM CLR 09/06 A3022 RMK AO1
Loading
Personal Weather Stations






























Interactive Weather Map
Tropical Storm Tracking
New forecast layout! Learn more

10-Day Weather Forecast

Advertisements
Track Severe Weather on mobile